Time;durP1;ratioP1;P1;durP2;ratioP2;P2;SDS_P1;SDS_P2;PMS_P1;PMS_P2;Temp;Humidity;BMP_temperature;BMP_pressure;BME280_temperature;BME280_humidity;BME280_pressure;Samples;Min_cycle;Max_cycle;Signal;HPM_P1;HPM_P2
2023/01/18 00:08:25;;;;;;;36.00;12.70;;;;;;;6.62;100.00;99771.69;105816;1291;600070;-80
2023/01/18 00:11:14;;;;;;;45.00;18.80;;;;;;;6.74;100.00;99779.68;108404;1267;62157;-81
2023/01/18 00:14:02;;;;;;;38.20;16.50;;;;;;;6.86;100.00;99779.27;108438;1265;61695;-81
2023/01/18 00:16:49;;;;;;;32.50;13.60;;;;;;;7.14;100.00;99785.52;108447;1267;74247;-81
2023/01/18 00:19:37;;;;;;;26.00;11.00;;;;;;;7.46;100.00;99782.36;108448;1267;71171;-81
2023/01/18 00:22:24;;;;;;;22.20;8.70;;;;;;;7.77;100.00;99780.00;108306;1267;137325;-81
2023/01/18 00:25:12;;;;;;;20.10;9.10;;;;;;;8.11;100.00;99772.13;108519;1264;60962;-81
2023/01/18 00:28:00;;;;;;;18.50;9.00;;;;;;;8.28;100.00;99768.61;108506;1267;62631;-81
2023/01/18 00:30:48;;;;;;;20.10;8.10;;;;;;;8.31;100.00;99768.77;108442;1263;74368;-80
2023/01/18 00:33:35;;;;;;;19.60;8.70;;;;;;;8.34;100.00;99759.92;108627;1263;71033;-81
2023/01/18 00:36:23;;;;;;;19.90;7.90;;;;;;;8.48;100.00;99756.16;108563;1264;74714;-81
2023/01/18 00:39:11;;;;;;;16.50;8.20;;;;;;;8.65;100.00;99754.17;108528;1266;64691;-82
2023/01/18 00:45:06;;;;;;;17.20;8.20;;;;;;;8.83;100.00;99745.63;108503;1264;75531;-81
2023/01/18 00:47:54;;;;;;;15.30;7.70;;;;;;;8.86;100.00;99742.61;108604;1266;69573;-80
2023/01/18 00:50:41;;;;;;;23.20;8.30;;;;;;;8.82;100.00;99742.52;108658;1263;74667;-80
2023/01/18 00:53:29;;;;;;;19.70;7.50;;;;;;;8.85;100.00;99742.34;108487;1264;61512;-81
2023/01/18 00:56:18;;;;;;;19.40;8.30;;;;;;;8.84;100.00;99748.68;108569;1262;62532;-81
2023/01/18 00:59:06;;;;;;;14.60;7.40;;;;;;;8.86;100.00;99741.67;108551;1263;75245;-81
2023/01/18 01:01:53;;;;;;;14.60;7.40;;;;;;;8.91;100.00;99735.16;108587;1264;70617;-81
2023/01/18 01:07:50;;;;;;;17.90;8.00;;;;;;;8.94;100.00;99732.73;108554;1264;62911;-81
2023/01/18 01:10:37;;;;;;;21.60;7.90;;;;;;;9.00;100.00;99730.92;108659;1263;62083;-81
2023/01/18 01:26:08;;;;;;;18.70;8.30;;;;;;;8.87;100.00;99731.87;109250;1252;62704;-81
2023/01/18 01:28:55;;;;;;;18.50;8.70;;;;;;;8.82;100.00;99731.41;109267;1254;75366;-81
2023/01/18 01:31:43;;;;;;;15.60;8.20;;;;;;;8.82;100.00;99734.25;109223;1253;69471;-81
2023/01/18 01:34:30;;;;;;;14.30;8.10;;;;;;;8.80;100.00;99731.65;109271;1253;73537;-81
2023/01/18 01:37:18;;;;;;;21.20;9.00;;;;;;;8.78;100.00;99734.12;109222;1254;61123;-81
2023/01/18 01:40:06;;;;;;;27.40;10.40;;;;;;;8.71;100.00;99732.61;109249;1253;61390;-81
2023/01/18 01:42:53;;;;;;;23.10;10.30;;;;;;;8.64;100.00;99727.48;109307;1254;74388;-81
2023/01/18 01:45:41;;;;;;;24.00;10.00;;;;;;;8.56;100.00;99726.00;109289;1253;70802;-81
2023/01/18 01:48:29;;;;;;;18.90;8.50;;;;;;;8.47;100.00;99724.01;109246;1253;75186;-81
2023/01/18 01:51:17;;;;;;;19.90;9.80;;;;;;;8.39;100.00;99725.83;109285;1252;64755;-81
2023/01/18 01:54:06;;;;;;;21.20;9.30;;;;;;;8.35;100.00;99728.78;109295;1253;60541;-81
2023/01/18 01:57:04;;;;;;;25.80;9.70;;;;;;;8.22;100.00;99725.00;109179;1253;75146;-82
2023/01/18 02:00:05;;;;;;;24.10;10.00;;;;;;;8.05;100.00;99735.81;109290;1254;69719;-81
2023/01/18 02:03:04;;;;;;;21.80;9.90;;;;;;;7.95;100.00;99744.13;109240;1254;73907;-81
2023/01/18 02:05:59;;;;;;;20.10;8.30;;;;;;;7.95;100.00;99743.10;109274;1253;61519;-80
2023/01/18 02:08:47;;;;;;;18.30;8.40;;;;;;;7.93;100.00;99738.70;109268;1253;61188;-81
2023/01/18 02:11:34;;;;;;;24.30;9.60;;;;;;;7.97;100.00;99738.41;109280;1253;74426;-81
2023/01/18 06:06:34;;;;;;;38.40;16.70;;;;;;;7.40;100.00;99667.02;105762;1292;601122;-81
2023/01/18 06:09:21;;;;;;;47.70;21.00;;;;;;;7.60;100.00;99670.91;108407;1269;63299;-81
2023/01/18 06:12:09;;;;;;;41.40;20.80;;;;;;;7.85;100.00;99664.48;108453;1266;62195;-81
2023/01/18 06:14:58;;;;;;;33.50;15.60;;;;;;;8.24;100.00;99652.27;108393;1267;74142;-81
2023/01/18 06:17:45;;;;;;;22.20;10.50;;;;;;;8.45;100.00;99657.73;108286;1267;69740;-81
2023/01/18 06:20:33;;;;;;;24.50;10.70;;;;;;;8.66;100.00;99653.70;108362;1263;182043;-81
2023/01/18 06:23:20;;;;;;;26.10;11.10;;;;;;;8.92;100.00;99649.98;108530;1263;64298;-80
2023/01/18 06:26:08;;;;;;;28.40;11.70;;;;;;;9.10;100.00;99654.20;108523;1266;62327;-81
2023/01/18 06:28:56;;;;;;;24.30;11.70;;;;;;;9.23;100.00;99647.90;108496;1263;73085;-80
2023/01/18 06:31:44;;;;;;;23.00;11.20;;;;;;;9.37;100.00;99649.05;108585;1264;69963;-81
2023/01/18 06:34:32;;;;;;;29.50;11.50;;;;;;;9.47;100.00;99651.81;108537;1263;74454;-81
2023/01/18 06:37:19;;;;;;;25.60;10.50;;;;;;;9.55;100.00;99649.48;108590;1263;61521;-81
2023/01/18 06:40:08;;;;;;;24.50;9.90;;;;;;;9.69;100.00;99648.98;108515;1265;61561;-81
2023/01/18 06:42:56;;;;;;;22.10;9.10;;;;;;;9.72;100.00;99650.63;108513;1263;73995;-81
2023/01/18 06:45:55;;;;;;;22.90;7.80;;;;;;;9.81;100.00;99651.55;108599;1265;71093;-81
2023/01/18 06:48:42;;;;;;;19.60;7.50;;;;;;;9.90;100.00;99655.30;108529;1263;74960;-81
2023/01/18 06:51:30;;;;;;;24.30;9.70;;;;;;;10.01;100.00;99661.70;108519;1263;64312;-81
2023/01/18 06:54:17;;;;;;;22.90;11.80;;;;;;;10.07;100.00;99662.42;108602;1263;61963;-80
2023/01/18 06:57:05;;;;;;;25.20;9.90;;;;;;;10.03;100.00;99664.19;108510;1263;75220;-81
2023/01/18 06:59:52;;;;;;;22.10;10.70;;;;;;;9.84;100.00;99666.03;108433;1265;70018;-81
2023/01/18 07:02:40;;;;;;;21.30;10.50;;;;;;;9.69;100.00;99667.85;108599;1263;74745;-81
2023/01/18 07:05:27;;;;;;;21.30;10.60;;;;;;;9.51;100.00;99665.45;108500;1263;60510;-81
2023/01/18 07:08:15;;;;;;;19.00;9.70;;;;;;;9.39;100.00;99670.95;108572;1264;62692;-81
2023/01/18 07:11:03;;;;;;;19.40;10.00;;;;;;;9.30;100.00;99673.79;108508;1263;75175;-81
2023/01/18 07:13:52;;;;;;;18.50;8.50;;;;;;;9.25;100.00;99671.92;108559;1263;69544;-81
2023/01/18 07:16:40;;;;;;;21.80;9.10;;;;;;;9.22;100.00;99665.96;108525;1266;73813;-81
2023/01/18 07:19:27;;;;;;;15.90;8.10;;;;;;;9.14;100.00;99665.94;108468;1263;64159;-81
2023/01/18 07:22:15;;;;;;;19.10;8.90;;;;;;;9.10;100.00;99661.89;108599;1263;62633;-81
2023/01/18 07:25:02;;;;;;;17.20;8.70;;;;;;;9.07;100.00;99665.84;108508;1266;75189;-81
2023/01/18 07:27:50;;;;;;;16.30;8.90;;;;;;;8.93;100.00;99659.39;108486;1263;71006;-81
2023/01/18 07:30:37;;;;;;;19.80;9.20;;;;;;;8.90;100.00;99666.39;108574;1264;75106;-81
2023/01/18 07:33:25;;;;;;;16.00;7.80;;;;;;;8.93;100.00;99658.52;108492;1263;63190;-81
2023/01/18 07:36:13;;;;;;;20.00;8.80;;;;;;;8.91;100.00;99654.88;108543;1263;62455;-81
2023/01/18 07:39:02;;;;;;;18.70;8.00;;;;;;;8.88;100.00;99651.86;108572;1263;75831;-82
2023/01/18 07:41:49;;;;;;;22.20;8.30;;;;;;;8.87;100.00;99651.38;108538;1263;71066;-81
2023/01/18 07:44:37;;;;;;;18.50;8.50;;;;;;;8.90;100.00;99653.15;108397;1266;74812;-81
2023/01/18 07:47:24;;;;;;;20.00;8.80;;;;;;;8.92;100.00;99652.64;108465;1263;60638;-81
2023/01/18 07:50:13;;;;;;;14.40;7.40;;;;;;;8.94;100.00;99651.53;108541;1263;62703;-81
2023/01/18 07:53:05;;;;;;;21.60;8.40;;;;;;;8.99;100.00;99657.52;108447;1263;75213;-81
2023/01/18 07:55:53;;;;;;;20.80;8.90;;;;;;;9.04;100.00;99661.55;108561;1263;69460;-81
2023/01/18 07:58:41;;;;;;;18.40;8.00;;;;;;;9.09;100.00;99664.24;108537;1266;74123;-81
2023/01/18 12:05:03;;;;;;;9.70;4.40;;;;;;;10.90;100.00;99500.70;105805;1291;599757;-81
2023/01/18 12:08:00;;;;;;;9.60;4.40;;;;;;;10.94;100.00;99508.86;108341;1268;62646;-81
2023/01/18 12:10:52;;;;;;;10.60;5.90;;;;;;;11.10;100.00;99509.34;108361;1267;62042;-81
2023/01/18 12:14:00;;;;;;;19.70;9.30;;;;;;;11.24;100.00;99509.22;108366;1267;74595;-81
2023/01/18 12:16:58;;;;;;;30.20;22.60;;;;;;;11.37;100.00;99511.67;108427;1267;70816;-81
2023/01/18 12:20:00;;;;;;;13.00;6.40;;;;;;;11.52;100.00;99503.90;108323;1265;218665;-81
2023/01/18 12:22:58;;;;;;;12.60;4.30;;;;;;;11.58;100.00;99501.63;108585;1264;62573;-81
2023/01/18 12:26:25;;;;;;;14.80;5.40;;;;;;;11.62;100.00;99502.07;108716;1262;62831;-82
2023/01/18 12:29:44;;;;;;;9.90;3.70;;;;;;;11.69;100.00;99511.77;108435;1268;74438;-81
2023/01/18 12:33:10;;;;;;;9.40;5.70;;;;;;;11.80;100.00;99516.11;108651;1264;69537;-81
2023/01/18 12:36:20;;;;;;;11.40;4.40;;;;;;;11.86;100.00;99518.00;108293;1263;74849;-81
2023/01/18 12:39:31;;;;;;;13.20;5.30;;;;;;;11.92;100.00;99522.54;108641;1264;62982;-82
2023/01/18 12:42:54;;;;;;;12.70;5.10;;;;;;;12.02;100.00;99516.25;108640;1263;62494;-81
2023/01/18 12:45:50;;;;;;;7.00;3.60;;;;;;;12.05;100.00;99512.96;108571;1264;75363;-81
2023/01/18 12:48:39;;;;;;;11.90;4.20;;;;;;;12.17;100.00;99516.55;108678;1263;69646;-81
2023/01/18 12:51:29;;;;;;;16.90;8.60;;;;;;;12.18;100.00;99517.01;108636;1264;73630;-81
2023/01/18 12:54:33;;;;;;;23.50;9.70;;;;;;;12.16;100.00;99521.08;108501;1263;62873;-81
2023/01/18 12:57:20;;;;;;;33.20;13.80;;;;;;;12.20;100.00;99517.08;108681;1262;62773;-81
2023/01/18 13:00:27;;;;;;;23.40;11.40;;;;;;;12.33;100.00;99517.13;108517;1264;74991;-81
2023/01/18 13:03:20;;;;;;;26.10;11.10;;;;;;;12.39;100.00;99517.29;108605;1264;70975;-81
2023/01/18 13:06:10;;;;;;;12.20;7.10;;;;;;;12.52;100.00;99515.16;108951;1256;74982;-81
2023/01/18 13:09:10;;;;;;;23.20;10.50;;;;;;;12.58;100.00;99520.09;109200;1257;62943;-81
2023/01/18 13:12:02;;;;;;;9.40;4.30;;;;;;;12.65;100.00;99523.83;108907;1257;61825;-82
2023/01/18 13:15:03;;;;;;;10.80;4.40;;;;;;;12.72;100.00;99521.96;108982;1257;76133;-81
2023/01/18 13:17:56;;;;;;;35.80;12.00;;;;;;;12.69;100.00;99524.89;109048;1257;71263;-82
2023/01/18 13:21:08;;;;;;;27.40;10.60;;;;;;;12.63;100.00;99520.98;108996;1258;74846;-82
2023/01/18 13:24:02;;;;;;;28.70;9.70;;;;;;;12.56;100.00;99523.77;108927;1257;61324;-81
2023/01/18 13:26:52;;;;;;;17.70;7.10;;;;;;;12.56;100.00;99517.09;109065;1257;61192;-81
2023/01/18 13:29:39;;;;;;;34.20;10.10;;;;;;;12.54;100.00;99516.79;109113;1257;73846;-81
2023/01/18 13:32:29;;;;;;;31.60;11.10;;;;;;;12.52;100.00;99507.39;108947;1256;69959;-81
2023/01/18 13:35:27;;;;;;;37.80;11.60;;;;;;;12.54;100.00;99510.66;108999;1256;74891;-81
2023/01/18 13:38:20;;;;;;;33.30;11.90;;;;;;;12.60;100.00;99507.50;108971;1257;61169;-81
2023/01/18 13:41:23;;;;;;;32.70;10.90;;;;;;;12.57;100.00;99511.03;108931;1257;62077;-81
2023/01/18 13:44:44;;;;;;;45.90;13.80;;;;;;;12.57;100.00;99518.80;108977;1261;74056;-81
2023/01/18 13:47:40;;;;;;;28.40;9.70;;;;;;;12.58;100.00;99525.96;108767;1257;70022;-82
2023/01/18 13:50:27;;;;;;;26.50;10.60;;;;;;;12.57;100.00;99518.58;108906;1257;75578;-81
2023/01/18 13:53:18;;;;;;;19.80;7.10;;;;;;;12.62;100.00;99524.44;108922;1258;62499;-81
2023/01/18 13:56:07;;;;;;;22.60;7.10;;;;;;;12.67;100.00;99527.13;108936;1256;60735;-81
2023/01/18 13:59:02;;;;;;;26.40;7.20;;;;;;;12.65;100.00;99532.12;108916;1260;73047;-81
2023/01/18 18:07:22;;;;;;;19.70;7.10;;;;;;;9.27;100.00;99707.30;105527;1291;601120;-83
2023/01/18 18:10:10;;;;;;;17.80;7.40;;;;;;;9.27;100.00;99718.24;108272;1267;63834;-81
2023/01/18 18:12:58;;;;;;;9.60;5.00;;;;;;;9.30;100.00;99723.89;108338;1267;62788;-82
2023/01/18 18:15:49;;;;;;;11.30;4.70;;;;;;;9.36;100.00;99735.54;108395;1266;72949;-81
2023/01/18 18:18:37;;;;;;;14.70;3.90;;;;;;;9.45;100.00;99740.08;108688;1262;71822;-82
2023/01/18 18:21:26;;;;;;;20.50;4.50;;;;;;;9.54;100.00;99746.71;108550;1260;202655;-82
2023/01/18 18:24:13;;;;;;;16.60;6.50;;;;;;;9.62;100.00;99745.95;108760;1260;62491;-82
2023/01/18 18:27:01;;;;;;;26.90;7.20;;;;;;;9.72;100.00;99757.52;108798;1259;62322;-81
2023/01/18 18:29:49;;;;;;;18.40;5.50;;;;;;;9.87;100.00;99769.46;108734;1260;74886;-81
2023/01/18 18:32:37;;;;;;;19.40;6.70;;;;;;;9.96;100.00;99763.51;109000;1256;71098;-82
2023/01/18 18:35:24;;;;;;;17.20;5.20;;;;;;;10.00;100.00;99758.60;108884;1257;74760;-82
2023/01/18 18:38:14;;;;;;;16.20;5.70;;;;;;;10.05;100.00;99762.09;108986;1256;62328;-82
2023/01/18 18:41:02;;;;;;;19.70;7.40;;;;;;;10.06;100.00;99758.25;108933;1256;62754;-82
2023/01/18 18:43:50;;;;;;;19.60;6.00;;;;;;;10.14;100.00;99749.64;108949;1257;75101;-81
2023/01/18 18:46:37;;;;;;;26.40;7.70;;;;;;;10.18;100.00;99753.95;108913;1256;70610;-80
2023/01/18 18:49:25;;;;;;;17.70;4.70;;;;;;;10.14;100.00;99752.09;108834;1257;73225;-81
2023/01/18 18:52:15;;;;;;;9.40;4.60;;;;;;;10.13;100.00;99757.12;109146;1254;64350;-81
2023/01/18 18:55:03;;;;;;;12.80;4.60;;;;;;;10.17;100.00;99757.30;109180;1252;61074;-81
2023/01/18 18:57:50;;;;;;;14.40;4.10;;;;;;;10.27;100.00;99760.39;109225;1254;75108;-81
2023/01/18 19:00:38;;;;;;;15.30;4.00;;;;;;;10.33;100.00;99747.21;109171;1254;70523;-82
2023/01/18 19:03:26;;;;;;;12.80;3.90;;;;;;;10.33;100.00;99746.84;109329;1254;74820;-82
2023/01/18 19:06:14;;;;;;;17.60;5.20;;;;;;;10.32;100.00;99748.65;109138;1255;64240;-82
2023/01/18 19:09:01;;;;;;;13.10;3.30;;;;;;;10.34;100.00;99751.86;109124;1254;61736;-83
2023/01/18 19:11:49;;;;;;;11.40;3.80;;;;;;;10.30;100.00;99752.34;109177;1254;75183;-82
2023/01/18 19:14:41;;;;;;;11.90;3.60;;;;;;;10.26;100.00;99762.85;109216;1254;71054;-82
2023/01/18 19:17:30;;;;;;;14.90;4.20;;;;;;;10.28;100.00;99769.57;109038;1254;73967;-82
2023/01/18 19:20:18;;;;;;;13.90;3.90;;;;;;;10.36;100.00;99782.24;109104;1254;60332;-82
2023/01/18 19:23:06;;;;;;;10.60;3.80;;;;;;;10.36;100.00;99789.45;109039;1256;61308;-82
2023/01/18 19:25:54;;;;;;;16.20;3.60;;;;;;;10.37;100.00;99793.33;109100;1254;74015;-82
2023/01/18 19:28:43;;;;;;;17.20;3.80;;;;;;;10.33;100.00;99800.27;108945;1253;70774;-82
2023/01/18 19:31:31;;;;;;;10.40;3.30;;;;;;;10.23;100.00;99804.61;108953;1254;74847;-82
2023/01/18 19:34:20;;;;;;;17.80;3.90;;;;;;;10.16;100.00;99803.66;109158;1254;61849;-81
2023/01/18 19:37:08;;;;;;;16.20;3.60;;;;;;;10.07;100.00;99808.90;109245;1254;61170;-82
2023/01/18 19:39:56;;;;;;;18.50;4.50;;;;;;;10.08;100.00;99814.96;109074;1254;75213;-82
2023/01/18 19:42:45;;;;;;;13.60;2.90;;;;;;;10.11;100.00;99819.02;109105;1255;70962;-81
2023/01/18 19:45:34;;;;;;;20.10;4.50;;;;;;;10.12;100.00;99823.31;109201;1254;73909;-82
2023/01/18 19:48:22;;;;;;;13.60;3.50;;;;;;;10.01;100.00;99824.92;109107;1254;62525;-82
2023/01/18 19:51:11;;;;;;;14.00;3.60;;;;;;;9.95;100.00;99820.02;109020;1254;60849;-81
2023/01/18 19:54:09;;;;;;;12.20;4.50;;;;;;;9.95;100.00;99825.05;109066;1254;73909;-82
2023/01/18 19:56:57;;;;;;;17.40;3.60;;;;;;;9.98;100.00;99834.17;109187;1254;68363;-83
2023/01/18 19:59:48;;;;;;;11.10;4.00;;;;;;;9.93;100.00;99833.75;109198;1254;74821;-82
